Time;durP1;ratioP1;P1;durP2;ratioP2;P2;SDS_P1;SDS_P2;PMS_P1;PMS_P2;Temp;Humidity;BMP_temperature;BMP_pressure;BME280_temperature;BME280_humidity;BME280_pressure;Samples;Min_cycle;Max_cycle;Signal;HPM_P1;HPM_P2
2023/05/11 00:02:08;;;;;;;2.37;1.60;;;;;;;15.14;66.54;100968.88;15614192;28;20401;-54
2023/05/11 00:09:41;;;;;;;1.25;0.85;;;;;;;14.92;66.58;100965.09;15621794;28;20127;-51
2023/05/11 00:17:15;;;;;;;0.73;0.73;;;;;;;14.69;67.15;100965.91;15619457;28;20107;-52
2023/05/11 00:24:48;;;;;;;2.83;0.82;;;;;;;14.67;66.68;100963.41;15589581;28;20034;-51
2023/05/11 00:32:22;;;;;;;1.53;1.03;;;;;;;14.45;66.87;100954.16;15577993;28;20406;-50
2023/05/11 00:39:54;;;;;;;4.22;0.85;;;;;;;14.36;66.79;100940.19;15585936;28;20186;-49
2023/05/11 00:47:29;;;;;;;2.97;1.80;;;;;;;14.26;66.86;100940.72;15562694;28;20053;-51
2023/05/11 00:55:01;;;;;;;4.32;1.42;;;;;;;14.11;67.45;100939.50;15602123;28;20050;-51
2023/05/11 01:02:37;;;;;;;2.78;1.50;;;;;;;13.84;67.63;100928.22;15604396;28;20049;-51
2023/05/11 01:10:17;;;;;;;2.17;1.27;;;;;;;13.76;67.79;100934.75;15565968;28;20494;-53
2023/05/11 01:17:57;;;;;;;1.98;1.17;;;;;;;13.76;67.55;100946.38;15581148;28;20225;-54
2023/05/11 01:25:46;;;;;;;2.25;0.98;;;;;;;13.36;67.37;100935.19;15582860;28;20125;-52
2023/05/11 01:33:26;;;;;;;1.38;0.65;;;;;;;13.15;68.39;100946.38;15546670;28;20542;-52
2023/05/11 01:41:03;;;;;;;0.80;0.43;;;;;;;13.25;68.57;100944.03;15572750;28;20410;-51
2023/05/11 01:48:42;;;;;;;2.83;1.33;;;;;;;13.18;68.52;100954.84;15579439;28;20049;-52
2023/05/11 01:56:16;;;;;;;2.55;1.40;;;;;;;13.04;67.86;100947.94;15599015;28;20088;-52
2023/05/11 02:03:54;;;;;;;0.98;0.57;;;;;;;13.06;67.52;100959.31;15604087;28;20177;-51
2023/05/11 02:11:29;;;;;;;2.72;0.95;;;;;;;13.02;67.09;100967.03;15573979;28;20046;-51
2023/05/11 02:19:05;;;;;;;1.20;0.75;;;;;;;12.94;67.53;100963.78;15564518;28;20045;-53
2023/05/11 02:26:38;;;;;;;2.97;1.75;;;;;;;12.73;68.38;100975.75;15603743;28;20517;-51
2023/05/11 02:34:19;;;;;;;1.60;1.13;;;;;;;12.73;68.39;100963.13;15582754;28;20038;-51
2023/05/11 02:41:58;;;;;;;3.27;1.67;;;;;;;12.79;68.59;100974.06;15594500;28;20311;-52
2023/05/11 02:49:34;;;;;;;1.65;1.55;;;;;;;12.64;68.49;100980.59;15602328;28;20061;-52
2023/05/11 02:57:07;;;;;;;2.10;1.33;;;;;;;12.32;68.85;100981.63;15589826;28;20450;-51
2023/05/11 03:04:43;;;;;;;1.60;0.95;;;;;;;12.32;69.09;100982.44;15602021;28;20045;-53
2023/05/11 03:12:16;;;;;;;1.85;1.25;;;;;;;12.46;68.92;100983.19;15575872;28;20038;-53
2023/05/11 03:19:51;;;;;;;1.87;0.97;;;;;;;11.97;70.18;100958.59;15588534;28;20514;-50
2023/05/11 03:27:26;;;;;;;4.00;1.52;;;;;;;12.23;69.70;100981.03;15569493;28;20128;-52
2023/05/11 03:35:00;;;;;;;2.75;1.55;;;;;;;12.37;68.76;100988.00;15572346;28;20042;-51
2023/05/11 03:42:35;;;;;;;3.53;2.03;;;;;;;12.25;69.17;100981.63;15566483;28;20026;-52
2023/05/11 03:50:11;;;;;;;4.63;2.28;;;;;;;12.28;68.94;100986.59;15569274;28;20111;-53
2023/05/11 03:57:44;;;;;;;4.03;2.38;;;;;;;12.20;70.03;100981.47;15559339;28;20050;-51
2023/05/11 04:05:19;;;;;;;3.80;2.67;;;;;;;12.51;69.57;100977.97;15569834;28;20128;-53
2023/05/11 04:12:52;;;;;;;3.53;1.83;;;;;;;12.39;69.98;100982.38;15567823;28;20041;-51
2023/05/11 04:20:26;;;;;;;3.63;2.00;;;;;;;12.38;70.08;100986.13;15554448;28;20057;-53
2023/05/11 04:27:59;;;;;;;5.97;2.17;;;;;;;12.46;69.85;100994.78;15565645;28;20412;-51
2023/05/11 04:35:33;;;;;;;6.60;2.22;;;;;;;12.39;68.92;100993.97;15594733;28;20083;-51
2023/05/11 04:43:07;;;;;;;3.15;1.92;;;;;;;12.91;67.03;100994.66;15556674;28;20503;-51
2023/05/11 04:50:41;;;;;;;2.10;1.73;;;;;;;12.80;67.27;101016.09;15562294;28;20152;-52
2023/05/11 04:58:15;;;;;;;3.65;2.50;;;;;;;12.83;67.48;101007.59;15582625;28;20045;-52
2023/05/11 05:05:49;;;;;;;2.97;1.83;;;;;;;13.36;64.71;101016.09;15565025;28;20049;-51
2023/05/11 05:13:22;;;;;;;3.30;1.88;;;;;;;13.60;64.40;101017.09;15578663;28;20045;-53
2023/05/11 05:20:56;;;;;;;1.37;1.27;;;;;;;13.67;65.17;101020.56;15595896;28;20103;-51
2023/05/11 05:28:31;;;;;;;4.95;2.17;;;;;;;13.88;64.19;101019.28;15576647;28;20045;-52
2023/05/11 05:36:06;;;;;;;1.67;1.58;;;;;;;14.82;59.94;101030.53;15569896;28;20083;-53
2023/05/11 05:43:39;;;;;;;3.25;2.10;;;;;;;15.82;56.82;101044.03;15594131;28;20076;-52
2023/05/11 05:51:15;;;;;;;3.22;1.77;;;;;;;16.71;52.92;101043.63;15587849;28;20445;-53
2023/05/11 05:58:48;;;;;;;1.63;1.25;;;;;;;16.79;55.09;101046.00;15611359;28;20045;-59
2023/05/11 06:06:22;;;;;;;1.85;1.40;;;;;;;16.82;52.30;101053.63;15594450;28;20042;-52
2023/05/11 06:13:55;;;;;;;2.70;1.25;;;;;;;18.49;48.67;101056.31;15577034;28;20045;-54
2023/05/11 06:21:30;;;;;;;2.33;1.60;;;;;;;19.46;45.51;101062.69;15610644;28;20709;-52
2023/05/11 06:29:03;;;;;;;2.92;1.63;;;;;;;18.25;47.96;101063.94;15610196;28;20058;-52
2023/05/11 06:36:37;;;;;;;2.22;1.10;;;;;;;17.72;48.69;101065.38;15594732;28;20042;-52
2023/05/11 06:44:12;;;;;;;1.30;1.15;;;;;;;18.54;47.80;101056.38;15568990;28;20045;-52
2023/05/11 06:51:50;;;;;;;4.10;1.10;;;;;;;18.13;45.93;101054.25;15612558;28;20049;-52
2023/05/11 06:59:22;;;;;;;2.65;1.25;;;;;;;19.63;44.56;101062.53;15619824;28;20060;-54
2023/05/11 07:06:56;;;;;;;1.95;1.40;;;;;;;19.36;43.47;101052.53;15620014;28;20072;-54
2023/05/11 07:14:29;;;;;;;0.50;0.30;;;;;;;20.21;42.08;101055.22;15619672;28;20050;-55
2023/05/11 07:22:04;;;;;;;;;;;;;;;22.18;38.40;101049.25;15617497;28;20041;-52
2023/05/11 07:29:39;;;;;;;2.10;1.02;;;;;;;23.17;35.80;101050.03;15618088;28;19928;-55
2023/05/11 07:37:13;;;;;;;1.48;0.82;;;;;;;23.83;35.32;101051.31;15618463;28;20049;-56
2023/05/11 07:44:45;;;;;;;1.25;0.68;;;;;;;22.43;36.28;101045.59;15618808;28;20060;-51
2023/05/11 07:52:19;;;;;;;;;;;;;;;22.63;37.42;101053.66;15618302;28;20053;-54
2023/05/11 07:59:52;;;;;;;1.98;1.08;;;;;;;22.17;38.47;101053.09;15617048;28;19940;-52
2023/05/11 08:07:28;;;;;;;;;;;;;;;21.82;38.63;101060.28;15617927;28;20050;-58
2023/05/11 08:15:05;;;;;;;1.67;0.95;;;;;;;21.59;39.32;101037.13;15617225;28;20306;-52
2023/05/11 08:22:39;;;;;;;0.90;0.73;;;;;;;21.28;38.64;101052.69;15616438;28;20057;-52
2023/05/11 08:30:13;;;;;;;2.15;0.90;;;;;;;21.78;38.42;101052.94;15608074;28;20529;-51
2023/05/11 08:37:47;;;;;;;0.80;0.60;;;;;;;21.85;38.64;101050.72;15597756;28;20037;-54
2023/05/11 08:45:21;;;;;;;1.27;0.50;;;;;;;22.63;37.40;101050.13;15604119;28;20524;-53
2023/05/11 08:52:55;;;;;;;2.95;0.80;;;;;;;22.39;37.34;101037.13;15582648;28;20128;-51
2023/05/11 09:00:30;;;;;;;1.77;0.95;;;;;;;22.73;36.82;101046.50;15588211;28;20064;-52
2023/05/11 09:08:07;;;;;;;2.28;0.73;;;;;;;22.88;36.00;101036.25;15595121;28;20533;-51
2023/05/11 09:15:40;;;;;;;1.92;0.60;;;;;;;22.72;36.91;101039.38;15612842;28;20099;-52
2023/05/11 09:23:17;;;;;;;1.63;0.57;;;;;;;23.08;35.58;101038.06;15611510;28;20045;-52
2023/05/11 09:30:53;;;;;;;1.95;0.90;;;;;;;23.34;35.82;101024.13;15633313;28;20042;-51
2023/05/11 09:38:27;;;;;;;3.28;1.40;;;;;;;24.07;35.07;101036.78;15601752;28;20041;-52
2023/05/11 09:46:03;;;;;;;0.82;0.50;;;;;;;23.10;34.78;101021.31;15614307;28;20131;-56
2023/05/11 09:53:44;;;;;;;1.48;0.68;;;;;;;23.04;37.27;101019.75;15569360;28;20441;-55
2023/05/11 10:01:19;;;;;;;1.27;0.50;;;;;;;22.42;34.72;101016.56;15632638;28;20098;-52
2023/05/11 10:08:54;;;;;;;0.65;0.45;;;;;;;23.15;32.66;101027.56;15620678;28;20037;-52
2023/05/11 10:16:26;;;;;;;0.93;0.38;;;;;;;22.93;33.08;101019.00;15642925;28;20046;-55
2023/05/11 10:24:00;;;;;;;0.45;0.40;;;;;;;23.16;34.04;101001.81;15609268;28;20116;-55
2023/05/11 10:31:34;;;;;;;0.90;0.50;;;;;;;23.51;30.88;100996.28;15593797;28;20060;-51
2023/05/11 10:39:08;;;;;;;0.50;0.40;;;;;;;23.09;32.25;101001.34;15626446;28;20496;-51
2023/05/11 10:46:56;;;;;;;1.02;0.50;;;;;;;22.89;32.29;100988.63;15613485;28;20491;-51
2023/05/11 10:54:49;;;;;;;0.77;0.47;;;;;;;23.51;32.85;100999.84;15637308;28;20310;-53
2023/05/11 11:02:22;;;;;;;0.90;0.30;;;;;;;24.26;31.12;100980.00;15616813;28;20055;-51
2023/05/11 11:09:59;;;;;;;1.50;0.73;;;;;;;24.74;30.93;100988.09;15627180;28;20042;-53
2023/05/11 11:17:33;;;;;;;0.55;0.45;;;;;;;24.22;31.35;100986.38;15609054;28;20069;-53
2023/05/11 11:25:09;;;;;;;0.65;0.40;;;;;;;24.75;31.32;100989.72;15625705;23;20054;-47
2023/05/11 11:32:42;;;;;;;0.73;0.50;;;;;;;22.86;32.04;100991.13;15654532;28;20037;-49
2023/05/11 11:40:16;;;;;;;0.10;0.10;;;;;;;22.65;31.47;100988.50;15662093;28;20487;-51
2023/05/11 11:48:14;;;;;;;0.98;0.50;;;;;;;22.22;33.53;100992.91;15677712;28;20073;-50
2023/05/11 11:55:50;;;;;;;0.73;0.40;;;;;;;24.07;32.41;100990.97;15678494;28;20060;-51
2023/05/11 12:03:22;;;;;;;0.50;0.40;;;;;;;23.73;31.07;101004.00;15676491;28;20044;-50
2023/05/11 12:10:57;;;;;;;0.35;0.35;;;;;;;24.06;30.43;100996.72;15677984;28;20144;-50
2023/05/11 12:18:30;;;;;;;0.55;0.40;;;;;;;24.95;28.91;100996.81;15676553;28;20535;-49
2023/05/11 12:26:05;;;;;;;1.13;0.40;;;;;;;24.17;30.07;100999.06;15677056;28;20052;-47
2023/05/11 12:33:45;;;;;;;1.02;0.43;;;;;;;22.71;29.60;100996.69;15676362;28;20040;-50
2023/05/11 12:41:21;;;;;;;0.20;0.20;;;;;;;23.04;31.33;100997.84;15673630;28;20136;-49
2023/05/11 12:48:54;;;;;;;0.88;0.38;;;;;;;23.70;29.22;100999.13;15674912;28;20080;-47
2023/05/11 12:56:28;;;;;;;1.85;0.43;;;;;;;23.41;28.59;100992.53;15675269;28;20041;-48
2023/05/11 13:04:00;;;;;;;0.82;0.47;;;;;;;22.74;31.66;101004.34;15674646;28;20036;-48
2023/05/11 13:11:35;;;;;;;0.45;0.30;;;;;;;23.50;29.18;101000.09;15673490;28;20088;-55
2023/05/11 13:19:08;;;;;;;0.47;0.38;;;;;;;23.40;30.20;101003.78;15673852;28;20037;-54
2023/05/11 13:26:43;;;;;;;0.60;0.20;;;;;;;22.96;29.89;101001.19;15673201;28;20071;-51
2023/05/11 13:34:16;;;;;;;0.75;0.30;;;;;;;22.68;31.80;101000.81;15672884;28;20041;-48
2023/05/11 13:41:51;;;;;;;0.32;0.30;;;;;;;22.56;31.94;100998.44;15671542;28;20163;-46
2023/05/11 13:49:23;;;;;;;0.90;0.43;;;;;;;21.89;31.71;101000.69;15675436;28;20037;-48
2023/05/11 13:56:58;;;;;;;0.30;0.30;;;;;;;21.92;32.82;101004.78;15685230;28;20053;-47
2023/05/11 14:04:30;;;;;;;1.02;0.50;;;;;;;21.78;32.12;101010.03;15682806;28;20044;-47
2023/05/11 14:12:05;;;;;;;0.88;0.52;;;;;;;22.43;32.20;100999.09;15684272;28;20051;-48
2023/05/11 14:19:38;;;;;;;0.63;0.45;;;;;;;22.37;30.96;101005.66;15683602;28;20037;-48
2023/05/11 14:27:12;;;;;;;0.75;0.40;;;;;;;22.03;31.08;101000.91;15683918;28;20056;-49
2023/05/11 14:34:45;;;;;;;0.85;0.40;;;;;;;22.49;29.96;100994.41;15683247;28;20544;-48
2023/05/11 14:42:19;;;;;;;1.10;0.40;;;;;;;22.23;30.92;101004.66;15682824;28;20399;-50
2023/05/11 14:49:52;;;;;;;0.75;0.35;;;;;;;22.14;30.45;100993.50;15664719;28;20093;-51
2023/05/11 14:57:26;;;;;;;0.70;0.30;;;;;;;22.34;31.19;100990.66;15682419;28;20048;-49
2023/05/11 15:04:59;;;;;;;0.98;0.65;;;;;;;22.36;30.68;100984.91;15652883;28;20033;-49
2023/05/11 15:12:35;;;;;;;0.63;0.50;;;;;;;22.03;30.46;100991.88;15644398;28;20063;-47
2023/05/11 15:20:09;;;;;;;0.20;0.20;;;;;;;22.36;29.96;100999.38;15679089;28;20132;-45
2023/05/11 15:27:43;;;;;;;1.17;0.40;;;;;;;22.25;30.44;101013.41;15638721;28;20049;-54
2023/05/11 15:35:16;;;;;;;0.28;0.13;;;;;;;21.56;32.41;101018.56;15657226;28;20053;-49
2023/05/11 15:42:50;;;;;;;1.35;0.43;;;;;;;21.62;32.43;101020.16;15674445;28;20056;-46
2023/05/11 15:50:23;;;;;;;0.38;0.22;;;;;;;21.48;32.05;101029.22;15668643;28;20514;-49
2023/05/11 15:57:57;;;;;;;0.47;0.15;;;;;;;21.49;33.21;101037.13;15662149;28;20079;-48
2023/05/11 16:05:30;;;;;;;0.93;0.50;;;;;;;21.17;34.70;101029.25;15675082;28;20037;-47
2023/05/11 16:13:04;;;;;;;0.45;0.28;;;;;;;21.58;35.26;101038.19;15684122;28;20045;-49
2023/05/11 16:20:37;;;;;;;3.95;0.55;;;;;;;21.41;33.96;101036.88;15641568;28;20053;-47
2023/05/11 16:28:11;;;;;;;0.73;0.20;;;;;;;21.44;34.18;101042.59;15648568;28;20036;-49
2023/05/11 16:35:45;;;;;;;1.38;0.70;;;;;;;21.28;33.77;101047.22;15625582;28;20038;-49
2023/05/11 16:43:26;;;;;;;1.77;0.88;;;;;;;21.29;34.30;101046.13;15783305;27;20503;-47
2023/05/11 16:50:58;;;;;;;0.95;0.40;;;;;;;21.52;34.14;101046.69;15725074;28;20033;-46
2023/05/11 16:58:32;;;;;;;;;;;;;;;21.54;34.72;101053.53;15726961;28;20174;-46
2023/05/11 17:06:05;;;;;;;0.20;0.20;;;;;;;20.97;32.13;101061.97;15715108;28;20273;-46
2023/05/11 17:13:39;;;;;;;3.92;2.03;;;;;;;20.88;32.93;101056.22;15718311;28;20136;-47
2023/05/11 17:21:12;;;;;;;0.52;0.35;;;;;;;20.92;33.06;101064.69;15702500;28;20433;-52
2023/05/11 17:28:46;;;;;;;1.40;0.65;;;;;;;20.59;32.64;101069.53;15689327;28;20517;-49
2023/05/11 17:36:20;;;;;;;1.10;0.77;;;;;;;20.43;32.79;101081.47;15722174;28;20040;-52
2023/05/11 17:43:54;;;;;;;0.50;0.40;;;;;;;20.41;33.03;101086.38;15712130;28;20085;-51
2023/05/11 17:51:27;;;;;;;7.45;1.15;;;;;;;20.27;33.11;101095.03;15676243;28;20039;-51
2023/05/11 17:59:01;;;;;;;5.85;0.60;;;;;;;20.22;33.25;101094.19;15659247;28;20098;-50
2023/05/11 18:06:34;;;;;;;0.65;0.32;;;;;;;20.39;33.10;101103.81;15712857;28;20063;-53
2023/05/11 18:14:08;;;;;;;;;;;;;;;20.11;34.01;101117.88;15680581;28;20502;-49
2023/05/11 18:21:40;;;;;;;1.95;0.45;;;;;;;20.25;33.32;101119.03;15677157;28;20190;-52
2023/05/11 18:29:16;;;;;;;1.85;0.63;;;;;;;20.31;33.92;101123.41;15651730;28;20041;-50
2023/05/11 18:36:49;;;;;;;0.38;0.38;;;;;;;20.27;34.29;101135.94;15667159;28;20041;-48
2023/05/11 18:44:23;;;;;;;0.57;0.30;;;;;;;20.25;34.33;101142.75;15664304;28;20081;-53
2023/05/11 18:51:55;;;;;;;1.05;0.40;;;;;;;19.70;35.02;101150.28;15653504;28;20053;-50
2023/05/11 18:59:29;;;;;;;;;;;;;;;19.59;35.30;101156.72;15669445;28;20037;-50
2023/05/11 19:07:02;;;;;;;4.22;1.65;;;;;;;19.64;35.71;101162.25;15651277;28;20294;-50
2023/05/11 19:14:36;;;;;;;1.15;0.70;;;;;;;19.53;35.48;101182.25;15660517;28;20052;-53
2023/05/11 19:22:09;;;;;;;0.55;0.40;;;;;;;19.37;36.04;101190.28;15655444;28;20494;-53
2023/05/11 19:29:43;;;;;;;;;;;;;;;19.23;36.51;101197.22;15652210;28;20084;-53
2023/05/11 19:37:17;;;;;;;1.23;0.32;;;;;;;19.16;36.89;101201.22;15676643;28;19967;-51
2023/05/11 19:44:51;;;;;;;1.83;0.38;;;;;;;19.08;36.93;101207.97;15631252;28;20053;-50
2023/05/11 19:52:23;;;;;;;1.52;0.80;;;;;;;18.50;38.04;101212.09;15642164;28;20064;-48
2023/05/11 19:59:59;;;;;;;1.63;0.55;;;;;;;18.69;38.02;101220.81;15658811;28;20048;-52
2023/05/11 20:07:31;;;;;;;0.85;0.52;;;;;;;18.73;38.35;101221.94;15673844;28;20461;-49
2023/05/11 20:15:07;;;;;;;2.65;0.60;;;;;;;18.97;37.70;101231.47;15670557;28;20045;-50
2023/05/11 20:22:40;;;;;;;5.50;0.95;;;;;;;18.51;39.18;101225.47;15630295;28;20068;-49
2023/05/11 20:30:15;;;;;;;3.72;0.55;;;;;;;18.48;39.77;101231.38;15634085;28;20061;-51
2023/05/11 20:37:47;;;;;;;2.88;0.90;;;;;;;18.47;39.77;101237.06;15631327;28;20489;-48
2023/05/11 20:45:24;;;;;;;1.75;0.63;;;;;;;18.47;40.09;101246.06;15645860;28;20132;-50
2023/05/11 20:52:57;;;;;;;1.27;0.57;;;;;;;18.25;40.38;101251.44;15648679;28;20029;-47
2023/05/11 21:00:31;;;;;;;0.50;0.50;;;;;;;17.82;41.24;101254.81;15640070;28;20076;-49
2023/05/11 21:08:03;;;;;;;2.00;0.60;;;;;;;18.00;41.59;101246.44;15650464;28;20044;-48
2023/05/11 21:15:38;;;;;;;1.90;0.93;;;;;;;17.75;41.98;101252.25;15636051;28;20073;-49
2023/05/11 21:23:10;;;;;;;3.42;0.80;;;;;;;17.67;42.46;101252.63;15649875;28;20506;-47
2023/05/11 21:30:44;;;;;;;1.48;0.90;;;;;;;17.85;43.04;101257.03;15637817;28;20042;-48
2023/05/11 21:38:17;;;;;;;0.75;0.68;;;;;;;17.43;43.43;101249.19;15659924;28;20525;-47
2023/05/11 21:45:51;;;;;;;2.15;1.17;;;;;;;17.13;43.84;101259.47;15679436;28;20049;-49
2023/05/11 21:53:24;;;;;;;1.00;0.75;;;;;;;17.31;43.71;101270.16;15667851;28;20132;-49
2023/05/11 22:00:58;;;;;;;1.40;0.50;;;;;;;17.67;43.00;101279.75;15646651;28;20076;-47
2023/05/11 22:08:31;;;;;;;1.88;0.98;;;;;;;17.82;43.17;101279.25;15644346;28;20029;-48
2023/05/11 22:16:07;;;;;;;1.35;0.90;;;;;;;17.76;43.39;101283.75;15642926;28;20049;-49
2023/05/11 22:23:39;;;;;;;3.17;1.08;;;;;;;16.90;45.25;101284.78;15675417;28;20049;-50
2023/05/11 22:31:13;;;;;;;2.13;0.97;;;;;;;17.31;45.09;101281.00;15650949;28;20045;-47
2023/05/11 22:38:49;;;;;;;1.77;0.80;;;;;;;17.29;45.42;101292.09;15668895;28;20386;-49
2023/05/11 22:46:23;;;;;;;2.63;0.80;;;;;;;16.58;46.16;101293.25;15671669;28;20056;-50
2023/05/11 22:53:55;;;;;;;2.22;0.75;;;;;;;16.37;46.23;101299.25;15665016;28;20053;-47
2023/05/11 23:01:32;;;;;;;2.93;1.10;;;;;;;16.43;46.19;101301.03;15675718;28;20079;-50
2023/05/11 23:09:04;;;;;;;2.03;0.80;;;;;;;16.37;46.42;101310.09;15657853;28;20090;-50
2023/05/11 23:16:38;;;;;;;1.27;0.83;;;;;;;16.11;46.50;101306.78;15652443;28;20123;-50
2023/05/11 23:24:11;;;;;;;1.65;1.05;;;;;;;16.04;46.83;101314.16;15621357;22;20045;-49
2023/05/11 23:31:47;;;;;;;2.28;0.50;;;;;;;16.50;46.13;101309.88;15607489;28;20048;-49
2023/05/11 23:39:20;;;;;;;9.65;1.92;;;;;;;16.54;46.31;101311.06;15599255;28;20038;-54
2023/05/11 23:46:54;;;;;;;2.37;1.57;;;;;;;16.31;47.16;101307.28;15602841;28;20046;-50
2023/05/11 23:54:26;;;;;;;1.50;1.05;;;;;;;16.15;46.57;101307.97;15602683;28;20193;-53
